sensor_id;sensor_type;location;lat;lon;timestamp;P1;durP1;ratioP1;P2;durP2;ratioP2
3054;SDS011;1537;52.018;8.542;2023-03-21T00:02:35;19.20;;;11.40;;
3054;SDS011;1537;52.018;8.542;2023-03-21T00:06:04;19.93;;;9.70;;
3054;SDS011;1537;52.018;8.542;2023-03-21T00:09:29;20.90;;;12.30;;
3054;SDS011;1537;52.018;8.542;2023-03-21T00:12:53;23.27;;;11.90;;
3054;SDS011;1537;52.018;8.542;2023-03-21T00:16:19;20.90;;;11.67;;
3054;SDS011;1537;52.018;8.542;2023-03-21T00:19:48;22.97;;;11.10;;
3054;SDS011;1537;52.018;8.542;2023-03-21T00:23:16;25.93;;;11.43;;
3054;SDS011;1537;52.018;8.542;2023-03-21T00:26:40;18.03;;;11.20;;
3054;SDS011;1537;52.018;8.542;2023-03-21T00:30:04;20.10;;;11.20;;
3054;SDS011;1537;52.018;8.542;2023-03-21T00:33:28;17.33;;;11.17;;
3054;SDS011;1537;52.018;8.542;2023-03-21T00:36:52;20.73;;;10.60;;
3054;SDS011;1537;52.018;8.542;2023-03-21T00:40:17;19.40;;;11.97;;
3054;SDS011;1537;52.018;8.542;2023-03-21T00:43:50;15.43;;;10.80;;
3054;SDS011;1537;52.018;8.542;2023-03-21T00:47:16;19.00;;;11.60;;
3054;SDS011;1537;52.018;8.542;2023-03-21T00:50:39;19.00;;;11.63;;
3054;SDS011;1537;52.018;8.542;2023-03-21T00:54:06;17.20;;;11.90;;
3054;SDS011;1537;52.018;8.542;2023-03-21T00:57:31;18.90;;;11.43;;
3054;SDS011;1537;52.018;8.542;2023-03-21T01:01:03;19.90;;;13.30;;
3054;SDS011;1537;52.018;8.542;2023-03-21T01:04:30;19.17;;;11.70;;
3054;SDS011;1537;52.018;8.542;2023-03-21T01:07:55;20.67;;;11.90;;
3054;SDS011;1537;52.018;8.542;2023-03-21T01:11:20;20.20;;;11.80;;
3054;SDS011;1537;52.018;8.542;2023-03-21T01:14:47;23.40;;;12.93;;
3054;SDS011;1537;52.018;8.542;2023-03-21T01:18:10;26.63;;;13.03;;
3054;SDS011;1537;52.018;8.542;2023-03-21T01:21:35;18.30;;;11.17;;
3054;SDS011;1537;52.018;8.542;2023-03-21T01:24:59;20.50;;;12.50;;
3054;SDS011;1537;52.018;8.542;2023-03-21T01:28:43;18.83;;;11.63;;
3054;SDS011;1537;52.018;8.542;2023-03-21T01:32:08;21.53;;;13.60;;
3054;SDS011;1537;52.018;8.542;2023-03-21T01:35:35;21.00;;;12.50;;
3054;SDS011;1537;52.018;8.542;2023-03-21T01:39:12;28.47;;;12.87;;
3054;SDS011;1537;52.018;8.542;2023-03-21T01:42:36;23.97;;;14.80;;
3054;SDS011;1537;52.018;8.542;2023-03-21T01:46:11;24.73;;;13.13;;
3054;SDS011;1537;52.018;8.542;2023-03-21T01:50:32;24.77;;;14.10;;
3054;SDS011;1537;52.018;8.542;2023-03-21T01:54:06;21.87;;;12.93;;
3054;SDS011;1537;52.018;8.542;2023-03-21T01:57:36;23.13;;;14.70;;
3054;SDS011;1537;52.018;8.542;2023-03-21T02:01:16;21.33;;;13.73;;
3054;SDS011;1537;52.018;8.542;2023-03-21T02:04:46;21.30;;;13.87;;
3054;SDS011;1537;52.018;8.542;2023-03-21T02:08:19;24.43;;;13.40;;
3054;SDS011;1537;52.018;8.542;2023-03-21T02:12:02;20.30;;;13.90;;
3054;SDS011;1537;52.018;8.542;2023-03-21T02:15:26;23.13;;;14.63;;
3054;SDS011;1537;52.018;8.542;2023-03-21T02:19:30;24.30;;;14.50;;
3054;SDS011;1537;52.018;8.542;2023-03-21T02:23:32;26.00;;;15.23;;
3054;SDS011;1537;52.018;8.542;2023-03-21T02:27:07;21.47;;;12.43;;
3054;SDS011;1537;52.018;8.542;2023-03-21T02:30:48;25.43;;;14.30;;
3054;SDS011;1537;52.018;8.542;2023-03-21T02:34:38;27.10;;;14.20;;
3054;SDS011;1537;52.018;8.542;2023-03-21T02:38:16;23.97;;;14.67;;
3054;SDS011;1537;52.018;8.542;2023-03-21T02:41:46;22.53;;;14.77;;
3054;SDS011;1537;52.018;8.542;2023-03-21T02:45:24;23.93;;;15.33;;
3054;SDS011;1537;52.018;8.542;2023-03-21T02:48:56;25.97;;;17.50;;
3054;SDS011;1537;52.018;8.542;2023-03-21T02:52:24;27.80;;;16.53;;
3054;SDS011;1537;52.018;8.542;2023-03-21T02:56:04;32.20;;;17.10;;
3054;SDS011;1537;52.018;8.542;2023-03-21T02:59:36;27.37;;;14.70;;
3054;SDS011;1537;52.018;8.542;2023-03-21T03:03:17;25.00;;;16.20;;
3054;SDS011;1537;52.018;8.542;2023-03-21T03:07:04;36.37;;;16.30;;
3054;SDS011;1537;52.018;8.542;2023-03-21T03:10:45;38.87;;;17.40;;
3054;SDS011;1537;52.018;8.542;2023-03-21T03:14:22;33.77;;;16.90;;
3054;SDS011;1537;52.018;8.542;2023-03-21T03:18:25;32.37;;;18.33;;
3054;SDS011;1537;52.018;8.542;2023-03-21T03:21:55;31.73;;;17.40;;
3054;SDS011;1537;52.018;8.542;2023-03-21T03:25:23;29.27;;;17.57;;
3054;SDS011;1537;52.018;8.542;2023-03-21T03:29:07;30.47;;;18.80;;
3054;SDS011;1537;52.018;8.542;2023-03-21T03:32:34;39.30;;;18.50;;
3054;SDS011;1537;52.018;8.542;2023-03-21T03:36:06;33.53;;;16.60;;
3054;SDS011;1537;52.018;8.542;2023-03-21T03:39:53;42.70;;;19.10;;
3054;SDS011;1537;52.018;8.542;2023-03-21T03:43:21;39.97;;;21.33;;
3054;SDS011;1537;52.018;8.542;2023-03-21T03:46:50;36.07;;;20.00;;
3054;SDS011;1537;52.018;8.542;2023-03-21T03:50:20;29.50;;;16.30;;
3054;SDS011;1537;52.018;8.542;2023-03-21T03:53:50;33.90;;;18.10;;
3054;SDS011;1537;52.018;8.542;2023-03-21T03:57:20;31.60;;;16.90;;
3054;SDS011;1537;52.018;8.542;2023-03-21T04:00:47;26.53;;;15.17;;
3054;SDS011;1537;52.018;8.542;2023-03-21T04:04:12;29.63;;;16.20;;
3054;SDS011;1537;52.018;8.542;2023-03-21T04:07:39;30.40;;;15.83;;
3054;SDS011;1537;52.018;8.542;2023-03-21T04:11:03;26.03;;;14.60;;
3054;SDS011;1537;52.018;8.542;2023-03-21T04:14:31;26.90;;;14.50;;
3054;SDS011;1537;52.018;8.542;2023-03-21T04:18:06;27.83;;;15.27;;
3054;SDS011;1537;52.018;8.542;2023-03-21T04:21:30;27.13;;;14.60;;
3054;SDS011;1537;52.018;8.542;2023-03-21T04:24:56;25.23;;;15.70;;
3054;SDS011;1537;52.018;8.542;2023-03-21T04:28:22;29.27;;;14.47;;
3054;SDS011;1537;52.018;8.542;2023-03-21T04:31:54;28.93;;;14.77;;
3054;SDS011;1537;52.018;8.542;2023-03-21T04:35:18;35.40;;;15.43;;
3054;SDS011;1537;52.018;8.542;2023-03-21T04:38:43;27.80;;;14.13;;
3054;SDS011;1537;52.018;8.542;2023-03-21T04:42:11;27.33;;;14.00;;
3054;SDS011;1537;52.018;8.542;2023-03-21T04:45:36;31.70;;;16.03;;
3054;SDS011;1537;52.018;8.542;2023-03-21T04:49:00;23.37;;;14.40;;
3054;SDS011;1537;52.018;8.542;2023-03-21T04:52:24;21.60;;;13.87;;
3054;SDS011;1537;52.018;8.542;2023-03-21T04:55:48;31.57;;;13.50;;
3054;SDS011;1537;52.018;8.542;2023-03-21T04:59:17;24.40;;;14.30;;
3054;SDS011;1537;52.018;8.542;2023-03-21T05:02:42;26.20;;;13.80;;
3054;SDS011;1537;52.018;8.542;2023-03-21T05:06:07;25.53;;;14.87;;
3054;SDS011;1537;52.018;8.542;2023-03-21T05:09:31;19.93;;;13.33;;
3054;SDS011;1537;52.018;8.542;2023-03-21T05:12:56;24.83;;;13.23;;
3054;SDS011;1537;52.018;8.542;2023-03-21T05:16:23;26.77;;;15.97;;
3054;SDS011;1537;52.018;8.542;2023-03-21T05:19:52;22.40;;;14.23;;
3054;SDS011;1537;52.018;8.542;2023-03-21T05:23:17;26.10;;;14.70;;
3054;SDS011;1537;52.018;8.542;2023-03-21T05:26:41;19.33;;;13.70;;
3054;SDS011;1537;52.018;8.542;2023-03-21T05:30:13;27.53;;;16.37;;
3054;SDS011;1537;52.018;8.542;2023-03-21T05:33:43;22.57;;;14.47;;
3054;SDS011;1537;52.018;8.542;2023-03-21T05:37:11;28.10;;;14.63;;
3054;SDS011;1537;52.018;8.542;2023-03-21T05:40:40;23.43;;;15.33;;
3054;SDS011;1537;52.018;8.542;2023-03-21T05:44:03;30.73;;;16.10;;
3054;SDS011;1537;52.018;8.542;2023-03-21T05:47:29;25.50;;;14.00;;
3054;SDS011;1537;52.018;8.542;2023-03-21T05:50:55;22.10;;;13.33;;
3054;SDS011;1537;52.018;8.542;2023-03-21T05:54:19;24.37;;;13.20;;
3054;SDS011;1537;52.018;8.542;2023-03-21T05:57:44;21.03;;;13.73;;
3054;SDS011;1537;52.018;8.542;2023-03-21T06:01:13;20.63;;;13.33;;
3054;SDS011;1537;52.018;8.542;2023-03-21T06:04:44;25.93;;;13.53;;
3054;SDS011;1537;52.018;8.542;2023-03-21T06:08:09;19.00;;;12.37;;
3054;SDS011;1537;52.018;8.542;2023-03-21T06:11:35;21.33;;;11.70;;
3054;SDS011;1537;52.018;8.542;2023-03-21T06:15:17;20.43;;;13.27;;
3054;SDS011;1537;52.018;8.542;2023-03-21T06:18:59;21.77;;;14.27;;
3054;SDS011;1537;52.018;8.542;2023-03-21T06:22:37;16.70;;;12.40;;
3054;SDS011;1537;52.018;8.542;2023-03-21T06:26:03;22.10;;;13.20;;
3054;SDS011;1537;52.018;8.542;2023-03-21T06:29:29;27.40;;;13.53;;
3054;SDS011;1537;52.018;8.542;2023-03-21T06:32:53;17.53;;;11.30;;
3054;SDS011;1537;52.018;8.542;2023-03-21T06:36:17;21.70;;;13.27;;
3054;SDS011;1537;52.018;8.542;2023-03-21T06:39:41;22.70;;;13.50;;
3054;SDS011;1537;52.018;8.542;2023-03-21T06:43:06;26.30;;;12.80;;
3054;SDS011;1537;52.018;8.542;2023-03-21T06:46:30;22.90;;;14.17;;
3054;SDS011;1537;52.018;8.542;2023-03-21T06:49:54;18.60;;;12.50;;
3054;SDS011;1537;52.018;8.542;2023-03-21T06:53:19;23.10;;;12.80;;
3054;SDS011;1537;52.018;8.542;2023-03-21T06:57:17;18.93;;;13.23;;
3054;SDS011;1537;52.018;8.542;2023-03-21T07:00:45;21.17;;;11.23;;
3054;SDS011;1537;52.018;8.542;2023-03-21T07:04:10;21.13;;;11.13;;
3054;SDS011;1537;52.018;8.542;2023-03-21T07:07:34;18.30;;;11.20;;
3054;SDS011;1537;52.018;8.542;2023-03-21T07:10:57;26.37;;;13.80;;
3054;SDS011;1537;52.018;8.542;2023-03-21T07:14:21;28.13;;;13.13;;
3054;SDS011;1537;52.018;8.542;2023-03-21T07:17:47;26.40;;;13.10;;
3054;SDS011;1537;52.018;8.542;2023-03-21T07:21:10;25.73;;;14.37;;
3054;SDS011;1537;52.018;8.542;2023-03-21T07:24:34;20.97;;;13.00;;
3054;SDS011;1537;52.018;8.542;2023-03-21T07:27:58;18.87;;;12.57;;
3054;SDS011;1537;52.018;8.542;2023-03-21T07:31:22;23.73;;;13.03;;
3054;SDS011;1537;52.018;8.542;2023-03-21T07:34:48;21.67;;;13.90;;
3054;SDS011;1537;52.018;8.542;2023-03-21T07:38:12;26.27;;;15.10;;
3054;SDS011;1537;52.018;8.542;2023-03-21T07:41:37;19.93;;;13.20;;
3054;SDS011;1537;52.018;8.542;2023-03-21T07:45:16;20.10;;;12.60;;
3054;SDS011;1537;52.018;8.542;2023-03-21T07:48:42;19.03;;;13.00;;
3054;SDS011;1537;52.018;8.542;2023-03-21T07:52:08;22.33;;;13.13;;
3054;SDS011;1537;52.018;8.542;2023-03-21T07:55:31;25.10;;;14.57;;
3054;SDS011;1537;52.018;8.542;2023-03-21T07:58:56;19.53;;;13.10;;
3054;SDS011;1537;52.018;8.542;2023-03-21T08:02:20;17.87;;;12.33;;
3054;SDS011;1537;52.018;8.542;2023-03-21T08:05:44;23.67;;;12.23;;
3054;SDS011;1537;52.018;8.542;2023-03-21T08:09:09;19.77;;;12.23;;
3054;SDS011;1537;52.018;8.542;2023-03-21T08:12:33;24.13;;;13.03;;
3054;SDS011;1537;52.018;8.542;2023-03-21T08:15:56;24.30;;;11.27;;
3054;SDS011;1537;52.018;8.542;2023-03-21T08:19:20;25.70;;;11.87;;
3054;SDS011;1537;52.018;8.542;2023-03-21T08:22:44;23.80;;;12.63;;
3054;SDS011;1537;52.018;8.542;2023-03-21T08:26:09;18.73;;;12.03;;
3054;SDS011;1537;52.018;8.542;2023-03-21T08:29:39;17.93;;;11.83;;
3054;SDS011;1537;52.018;8.542;2023-03-21T08:33:03;26.00;;;12.70;;
3054;SDS011;1537;52.018;8.542;2023-03-21T08:36:26;31.23;;;14.20;;
3054;SDS011;1537;52.018;8.542;2023-03-21T08:39:51;22.13;;;12.47;;
3054;SDS011;1537;52.018;8.542;2023-03-21T08:43:16;22.80;;;13.13;;
3054;SDS011;1537;52.018;8.542;2023-03-21T08:46:40;24.37;;;13.50;;
3054;SDS011;1537;52.018;8.542;2023-03-21T08:50:04;23.23;;;13.20;;
3054;SDS011;1537;52.018;8.542;2023-03-21T08:53:29;21.23;;;13.53;;
3054;SDS011;1537;52.018;8.542;2023-03-21T08:56:53;24.50;;;12.37;;
3054;SDS011;1537;52.018;8.542;2023-03-21T09:00:19;18.47;;;11.77;;
3054;SDS011;1537;52.018;8.542;2023-03-21T09:03:43;19.87;;;11.70;;
3054;SDS011;1537;52.018;8.542;2023-03-21T09:07:06;19.40;;;11.37;;
3054;SDS011;1537;52.018;8.542;2023-03-21T09:10:32;26.90;;;14.07;;
3054;SDS011;1537;52.018;8.542;2023-03-21T09:13:55;16.60;;;10.27;;
3054;SDS011;1537;52.018;8.542;2023-03-21T09:17:20;27.67;;;13.40;;
3054;SDS011;1537;52.018;8.542;2023-03-21T09:20:45;19.80;;;12.23;;
3054;SDS011;1537;52.018;8.542;2023-03-21T09:24:09;21.47;;;11.80;;
3054;SDS011;1537;52.018;8.542;2023-03-21T09:27:33;22.33;;;13.03;;
3054;SDS011;1537;52.018;8.542;2023-03-21T09:30:57;27.17;;;14.80;;
3054;SDS011;1537;52.018;8.542;2023-03-21T09:34:25;21.80;;;13.37;;
3054;SDS011;1537;52.018;8.542;2023-03-21T09:37:49;20.60;;;12.83;;
3054;SDS011;1537;52.018;8.542;2023-03-21T09:41:19;19.93;;;13.07;;
3054;SDS011;1537;52.018;8.542;2023-03-21T09:44:57;20.97;;;12.17;;
3054;SDS011;1537;52.018;8.542;2023-03-21T09:48:31;27.40;;;13.73;;
3054;SDS011;1537;52.018;8.542;2023-03-21T09:52:08;20.50;;;11.90;;
3054;SDS011;1537;52.018;8.542;2023-03-21T09:55:38;22.53;;;11.70;;
3054;SDS011;1537;52.018;8.542;2023-03-21T09:59:03;21.47;;;13.10;;
3054;SDS011;1537;52.018;8.542;2023-03-21T10:02:33;19.87;;;11.63;;
3054;SDS011;1537;52.018;8.542;2023-03-21T10:05:59;24.80;;;11.73;;
3054;SDS011;1537;52.018;8.542;2023-03-21T10:09:30;25.10;;;13.33;;
3054;SDS011;1537;52.018;8.542;2023-03-21T10:12:55;29.70;;;13.50;;
3054;SDS011;1537;52.018;8.542;2023-03-21T10:16:20;22.73;;;12.57;;
3054;SDS011;1537;52.018;8.542;2023-03-21T10:19:48;21.47;;;11.30;;
3054;SDS011;1537;52.018;8.542;2023-03-21T10:23:19;22.30;;;12.93;;
3054;SDS011;1537;52.018;8.542;2023-03-21T10:26:48;18.77;;;11.50;;
3054;SDS011;1537;52.018;8.542;2023-03-21T10:30:28;24.07;;;12.63;;
3054;SDS011;1537;52.018;8.542;2023-03-21T10:34:02;23.10;;;11.90;;
3054;SDS011;1537;52.018;8.542;2023-03-21T10:37:31;19.90;;;12.43;;
3054;SDS011;1537;52.018;8.542;2023-03-21T10:40:57;23.47;;;11.13;;
3054;SDS011;1537;52.018;8.542;2023-03-21T10:44:23;26.03;;;11.30;;
3054;SDS011;1537;52.018;8.542;2023-03-21T10:47:52;17.07;;;11.33;;
3054;SDS011;1537;52.018;8.542;2023-03-21T10:51:18;16.80;;;12.03;;
3054;SDS011;1537;52.018;8.542;2023-03-21T10:54:43;16.73;;;10.07;;
3054;SDS011;1537;52.018;8.542;2023-03-21T10:58:12;21.70;;;11.70;;
3054;SDS011;1537;52.018;8.542;2023-03-21T11:01:41;16.83;;;9.13;;
3054;SDS011;1537;52.018;8.542;2023-03-21T11:05:15;19.10;;;12.33;;
3054;SDS011;1537;52.018;8.542;2023-03-21T11:08:44;24.70;;;10.93;;
3054;SDS011;1537;52.018;8.542;2023-03-21T11:12:10;19.20;;;11.50;;
3054;SDS011;1537;52.018;8.542;2023-03-21T11:15:40;16.40;;;10.90;;
3054;SDS011;1537;52.018;8.542;2023-03-21T11:19:14;18.87;;;11.07;;
3054;SDS011;1537;52.018;8.542;2023-03-21T11:22:40;16.30;;;9.77;;
3054;SDS011;1537;52.018;8.542;2023-03-21T11:26:08;15.47;;;11.20;;
3054;SDS011;1537;52.018;8.542;2023-03-21T11:29:33;19.07;;;9.67;;
3054;SDS011;1537;52.018;8.542;2023-03-21T11:33:00;20.17;;;10.57;;
3054;SDS011;1537;52.018;8.542;2023-03-21T11:36:31;15.43;;;10.67;;
3054;SDS011;1537;52.018;8.542;2023-03-21T11:39:56;17.40;;;10.00;;
3054;SDS011;1537;52.018;8.542;2023-03-21T11:43:30;18.27;;;10.67;;
3054;SDS011;1537;52.018;8.542;2023-03-21T11:46:57;19.30;;;10.67;;
3054;SDS011;1537;52.018;8.542;2023-03-21T11:50:25;17.23;;;10.33;;
3054;SDS011;1537;52.018;8.542;2023-03-21T11:53:57;13.10;;;8.47;;
3054;SDS011;1537;52.018;8.542;2023-03-21T11:57:28;23.37;;;11.03;;
3054;SDS011;1537;52.018;8.542;2023-03-21T12:01:02;19.17;;;11.33;;
3054;SDS011;1537;52.018;8.542;2023-03-21T12:04:38;16.37;;;10.30;;
3054;SDS011;1537;52.018;8.542;2023-03-21T12:08:05;18.50;;;11.77;;
3054;SDS011;1537;52.018;8.542;2023-03-21T12:11:42;19.80;;;10.90;;
3054;SDS011;1537;52.018;8.542;2023-03-21T12:15:16;16.53;;;11.10;;
3054;SDS011;1537;52.018;8.542;2023-03-21T12:18:52;20.77;;;11.50;;
3054;SDS011;1537;52.018;8.542;2023-03-21T12:22:31;19.73;;;10.50;;
3054;SDS011;1537;52.018;8.542;2023-03-21T12:26:02;17.37;;;11.00;;
3054;SDS011;1537;52.018;8.542;2023-03-21T12:29:42;20.40;;;8.90;;
3054;SDS011;1537;52.018;8.542;2023-03-21T12:33:23;18.57;;;9.33;;
3054;SDS011;1537;52.018;8.542;2023-03-21T12:37:01;19.73;;;9.50;;
3054;SDS011;1537;52.018;8.542;2023-03-21T12:40:35;17.73;;;9.77;;
3054;SDS011;1537;52.018;8.542;2023-03-21T12:44:13;18.43;;;8.37;;
3054;SDS011;1537;52.018;8.542;2023-03-21T12:47:40;17.73;;;9.47;;
3054;SDS011;1537;52.018;8.542;2023-03-21T12:51:09;15.07;;;8.77;;
3054;SDS011;1537;52.018;8.542;2023-03-21T12:54:36;17.30;;;10.10;;
3054;SDS011;1537;52.018;8.542;2023-03-21T12:58:04;15.80;;;8.83;;
3054;SDS011;1537;52.018;8.542;2023-03-21T13:01:33;18.07;;;8.57;;
3054;SDS011;1537;52.018;8.542;2023-03-21T13:05:06;14.90;;;8.00;;
3054;SDS011;1537;52.018;8.542;2023-03-21T13:08:40;155.23;;;30.97;;
3054;SDS011;1537;52.018;8.542;2023-03-21T13:15:52;314.80;;;58.27;;
3054;SDS011;1537;52.018;8.542;2023-03-21T13:19:23;239.17;;;41.43;;
3054;SDS011;1537;52.018;8.542;2023-03-21T13:22:55;214.97;;;40.47;;
3054;SDS011;1537;52.018;8.542;2023-03-21T13:26:30;25.10;;;9.13;;
3054;SDS011;1537;52.018;8.542;2023-03-21T13:29:59;89.67;;;19.90;;
3054;SDS011;1537;52.018;8.542;2023-03-21T13:33:28;418.57;;;72.90;;
3054;SDS011;1537;52.018;8.542;2023-03-21T13:36:55;146.27;;;30.60;;
3054;SDS011;1537;52.018;8.542;2023-03-21T13:40:24;39.33;;;12.73;;
3054;SDS011;1537;52.018;8.542;2023-03-21T13:43:51;14.03;;;6.57;;
3054;SDS011;1537;52.018;8.542;2023-03-21T13:47:28;13.43;;;7.43;;
3054;SDS011;1537;52.018;8.542;2023-03-21T13:51:04;14.40;;;6.93;;
3054;SDS011;1537;52.018;8.542;2023-03-21T13:54:41;8.77;;;5.73;;
3054;SDS011;1537;52.018;8.542;2023-03-21T13:58:23;12.93;;;6.43;;
3054;SDS011;1537;52.018;8.542;2023-03-21T14:01:57;197.70;;;43.40;;
3054;SDS011;1537;52.018;8.542;2023-03-21T14:05:24;35.70;;;11.27;;
3054;SDS011;1537;52.018;8.542;2023-03-21T14:08:50;25.23;;;8.40;;
3054;SDS011;1537;52.018;8.542;2023-03-21T14:12:15;23.70;;;8.50;;
3054;SDS011;1537;52.018;8.542;2023-03-21T14:15:46;16.60;;;7.10;;
3054;SDS011;1537;52.018;8.542;2023-03-21T14:19:18;8.37;;;6.40;;
3054;SDS011;1537;52.018;8.542;2023-03-21T14:22:45;11.50;;;6.10;;
3054;SDS011;1537;52.018;8.542;2023-03-21T14:26:10;9.33;;;6.40;;
3054;SDS011;1537;52.018;8.542;2023-03-21T14:29:37;13.30;;;8.23;;
3054;SDS011;1537;52.018;8.542;2023-03-21T14:33:06;10.13;;;5.00;;
3054;SDS011;1537;52.018;8.542;2023-03-21T14:36:38;9.27;;;6.27;;
3054;SDS011;1537;52.018;8.542;2023-03-21T14:40:16;10.70;;;6.10;;
3054;SDS011;1537;52.018;8.542;2023-03-21T14:43:42;10.97;;;5.77;;
3054;SDS011;1537;52.018;8.542;2023-03-21T14:47:06;12.23;;;6.40;;
3054;SDS011;1537;52.018;8.542;2023-03-21T14:50:41;10.67;;;5.80;;
3054;SDS011;1537;52.018;8.542;2023-03-21T14:54:11;9.03;;;5.30;;
3054;SDS011;1537;52.018;8.542;2023-03-21T14:57:38;9.33;;;5.67;;
3054;SDS011;1537;52.018;8.542;2023-03-21T15:01:03;7.63;;;5.60;;
3054;SDS011;1537;52.018;8.542;2023-03-21T15:04:30;10.73;;;6.07;;
3054;SDS011;1537;52.018;8.542;2023-03-21T15:07:57;9.30;;;5.53;;
3054;SDS011;1537;52.018;8.542;2023-03-21T15:11:27;12.97;;;5.37;;
3054;SDS011;1537;52.018;8.542;2023-03-21T15:14:52;7.03;;;5.03;;
3054;SDS011;1537;52.018;8.542;2023-03-21T15:18:18;11.60;;;5.57;;
3054;SDS011;1537;52.018;8.542;2023-03-21T15:21:48;9.60;;;4.03;;
3054;SDS011;1537;52.018;8.542;2023-03-21T15:25:16;9.37;;;5.07;;
3054;SDS011;1537;52.018;8.542;2023-03-21T15:28:43;7.67;;;5.10;;
3054;SDS011;1537;52.018;8.542;2023-03-21T15:32:11;7.50;;;4.70;;
3054;SDS011;1537;52.018;8.542;2023-03-21T15:35:38;8.60;;;4.67;;
3054;SDS011;1537;52.018;8.542;2023-03-21T15:39:07;8.60;;;4.50;;
3054;SDS011;1537;52.018;8.542;2023-03-21T15:42:37;8.57;;;5.00;;
3054;SDS011;1537;52.018;8.542;2023-03-21T15:46:03;11.17;;;5.67;;
3054;SDS011;1537;52.018;8.542;2023-03-21T15:49:38;6.13;;;4.70;;
3054;SDS011;1537;52.018;8.542;2023-03-21T15:53:04;10.10;;;5.27;;
3054;SDS011;1537;52.018;8.542;2023-03-21T15:56:34;8.70;;;5.07;;
3054;SDS011;1537;52.018;8.542;2023-03-21T16:00:01;7.60;;;5.93;;
3054;SDS011;1537;52.018;8.542;2023-03-21T16:03:34;10.90;;;5.30;;
3054;SDS011;1537;52.018;8.542;2023-03-21T16:07:02;6.27;;;4.60;;
3054;SDS011;1537;52.018;8.542;2023-03-21T16:10:37;8.13;;;4.77;;
3054;SDS011;1537;52.018;8.542;2023-03-21T16:14:01;9.10;;;5.20;;
3054;SDS011;1537;52.018;8.542;2023-03-21T16:17:29;9.40;;;5.47;;
3054;SDS011;1537;52.018;8.542;2023-03-21T16:20:57;7.27;;;4.23;;
3054;SDS011;1537;52.018;8.542;2023-03-21T16:24:21;8.60;;;4.73;;
3054;SDS011;1537;52.018;8.542;2023-03-21T16:27:46;6.10;;;4.50;;
3054;SDS011;1537;52.018;8.542;2023-03-21T16:31:11;5.43;;;4.27;;
3054;SDS011;1537;52.018;8.542;2023-03-21T16:34:38;6.07;;;4.20;;
3054;SDS011;1537;52.018;8.542;2023-03-21T16:38:03;5.30;;;4.10;;
3054;SDS011;1537;52.018;8.542;2023-03-21T16:41:27;7.03;;;5.00;;
3054;SDS011;1537;52.018;8.542;2023-03-21T16:44:50;8.80;;;5.10;;
3054;SDS011;1537;52.018;8.542;2023-03-21T16:48:14;7.40;;;5.00;;
3054;SDS011;1537;52.018;8.542;2023-03-21T16:51:40;6.77;;;5.10;;
3054;SDS011;1537;52.018;8.542;2023-03-21T16:55:04;8.83;;;5.13;;
3054;SDS011;1537;52.018;8.542;2023-03-21T16:58:29;6.97;;;4.13;;
3054;SDS011;1537;52.018;8.542;2023-03-21T17:01:53;9.40;;;5.43;;
3054;SDS011;1537;52.018;8.542;2023-03-21T17:05:17;8.83;;;4.80;;
3054;SDS011;1537;52.018;8.542;2023-03-21T17:08:43;8.27;;;5.27;;
3054;SDS011;1537;52.018;8.542;2023-03-21T17:12:08;11.33;;;6.00;;
3054;SDS011;1537;52.018;8.542;2023-03-21T17:15:34;7.83;;;5.47;;
3054;SDS011;1537;52.018;8.542;2023-03-21T17:18:58;7.70;;;5.20;;
3054;SDS011;1537;52.018;8.542;2023-03-21T17:22:22;7.53;;;5.80;;
3054;SDS011;1537;52.018;8.542;2023-03-21T17:25:48;7.53;;;4.47;;
3054;SDS011;1537;52.018;8.542;2023-03-21T17:29:12;6.70;;;5.50;;
3054;SDS011;1537;52.018;8.542;2023-03-21T17:32:36;7.30;;;5.10;;
3054;SDS011;1537;52.018;8.542;2023-03-21T17:36:00;7.37;;;5.30;;
3054;SDS011;1537;52.018;8.542;2023-03-21T17:39:24;9.20;;;5.90;;
3054;SDS011;1537;52.018;8.542;2023-03-21T17:42:51;7.87;;;5.43;;
3054;SDS011;1537;52.018;8.542;2023-03-21T17:46:16;7.60;;;4.93;;
3054;SDS011;1537;52.018;8.542;2023-03-21T17:49:42;7.80;;;5.63;;
3054;SDS011;1537;52.018;8.542;2023-03-21T17:53:07;7.63;;;5.13;;
3054;SDS011;1537;52.018;8.542;2023-03-21T17:56:31;7.57;;;5.40;;
3054;SDS011;1537;52.018;8.542;2023-03-21T17:59:59;8.37;;;5.63;;
3054;SDS011;1537;52.018;8.542;2023-03-21T18:03:32;8.30;;;5.90;;
3054;SDS011;1537;52.018;8.542;2023-03-21T18:06:56;6.50;;;4.87;;
3054;SDS011;1537;52.018;8.542;2023-03-21T18:10:22;9.30;;;5.83;;
3054;SDS011;1537;52.018;8.542;2023-03-21T18:13:47;6.70;;;4.83;;
3054;SDS011;1537;52.018;8.542;2023-03-21T18:17:12;7.17;;;5.10;;
3054;SDS011;1537;52.018;8.542;2023-03-21T18:20:39;9.13;;;5.70;;
3054;SDS011;1537;52.018;8.542;2023-03-21T18:24:13;11.60;;;6.50;;
3054;SDS011;1537;52.018;8.542;2023-03-21T18:27:38;7.47;;;5.40;;
3054;SDS011;1537;52.018;8.542;2023-03-21T18:31:21;8.03;;;5.20;;
3054;SDS011;1537;52.018;8.542;2023-03-21T18:34:47;9.47;;;5.30;;
3054;SDS011;1537;52.018;8.542;2023-03-21T18:38:11;7.27;;;5.00;;
3054;SDS011;1537;52.018;8.542;2023-03-21T18:41:35;8.47;;;5.70;;
3054;SDS011;1537;52.018;8.542;2023-03-21T18:44:59;12.43;;;6.80;;
3054;SDS011;1537;52.018;8.542;2023-03-21T18:48:23;9.30;;;6.67;;
3054;SDS011;1537;52.018;8.542;2023-03-21T18:51:48;11.67;;;5.90;;
3054;SDS011;1537;52.018;8.542;2023-03-21T18:55:12;8.57;;;6.10;;
3054;SDS011;1537;52.018;8.542;2023-03-21T18:58:36;8.23;;;5.90;;
3054;SDS011;1537;52.018;8.542;2023-03-21T19:02:00;9.77;;;7.33;;
3054;SDS011;1537;52.018;8.542;2023-03-21T19:05:28;11.20;;;7.90;;
3054;SDS011;1537;52.018;8.542;2023-03-21T19:08:53;8.83;;;6.30;;
3054;SDS011;1537;52.018;8.542;2023-03-21T19:12:17;8.80;;;7.50;;
3054;SDS011;1537;52.018;8.542;2023-03-21T19:15:41;9.83;;;7.63;;
3054;SDS011;1537;52.018;8.542;2023-03-21T19:19:06;11.13;;;7.57;;
3054;SDS011;1537;52.018;8.542;2023-03-21T19:22:30;8.93;;;6.50;;
3054;SDS011;1537;52.018;8.542;2023-03-21T19:25:55;11.90;;;6.57;;
3054;SDS011;1537;52.018;8.542;2023-03-21T19:29:19;10.30;;;7.00;;
3054;SDS011;1537;52.018;8.542;2023-03-21T19:32:43;8.77;;;6.80;;
3054;SDS011;1537;52.018;8.542;2023-03-21T19:36:07;8.43;;;6.97;;
3054;SDS011;1537;52.018;8.542;2023-03-21T19:39:42;8.37;;;6.73;;
3054;SDS011;1537;52.018;8.542;2023-03-21T19:43:08;9.07;;;6.57;;
3054;SDS011;1537;52.018;8.542;2023-03-21T19:46:52;10.63;;;6.90;;
3054;SDS011;1537;52.018;8.542;2023-03-21T19:50:15;9.93;;;6.70;;
3054;SDS011;1537;52.018;8.542;2023-03-21T19:54:02;9.57;;;6.70;;
3054;SDS011;1537;52.018;8.542;2023-03-21T19:57:27;12.33;;;8.13;;
3054;SDS011;1537;52.018;8.542;2023-03-21T20:00:52;9.10;;;6.93;;
3054;SDS011;1537;52.018;8.542;2023-03-21T20:04:15;12.03;;;7.23;;
3054;SDS011;1537;52.018;8.542;2023-03-21T20:07:39;8.97;;;6.87;;
3054;SDS011;1537;52.018;8.542;2023-03-21T20:11:03;12.73;;;8.30;;
3054;SDS011;1537;52.018;8.542;2023-03-21T20:14:28;15.47;;;8.57;;
3054;SDS011;1537;52.018;8.542;2023-03-21T20:17:53;11.70;;;8.17;;
3054;SDS011;1537;52.018;8.542;2023-03-21T20:21:17;11.73;;;7.30;;
3054;SDS011;1537;52.018;8.542;2023-03-21T20:24:46;11.33;;;7.07;;
3054;SDS011;1537;52.018;8.542;2023-03-21T20:28:10;10.17;;;7.83;;
3054;SDS011;1537;52.018;8.542;2023-03-21T20:31:45;13.77;;;7.77;;
3054;SDS011;1537;52.018;8.542;2023-03-21T20:35:10;13.30;;;7.00;;
3054;SDS011;1537;52.018;8.542;2023-03-21T20:38:48;11.03;;;8.27;;
3054;SDS011;1537;52.018;8.542;2023-03-21T20:42:12;11.60;;;6.93;;
3054;SDS011;1537;52.018;8.542;2023-03-21T20:45:36;8.63;;;6.33;;
3054;SDS011;1537;52.018;8.542;2023-03-21T20:49:00;9.20;;;7.00;;
3054;SDS011;1537;52.018;8.542;2023-03-21T20:52:28;9.77;;;7.70;;
3054;SDS011;1537;52.018;8.542;2023-03-21T20:56:11;10.53;;;7.27;;
3054;SDS011;1537;52.018;8.542;2023-03-21T20:59:35;9.50;;;7.47;;
3054;SDS011;1537;52.018;8.542;2023-03-21T21:02:59;9.03;;;7.20;;
3054;SDS011;1537;52.018;8.542;2023-03-21T21:06:23;8.73;;;6.70;;
3054;SDS011;1537;52.018;8.542;2023-03-21T21:09:48;9.33;;;6.83;;
3054;SDS011;1537;52.018;8.542;2023-03-21T21:13:12;8.97;;;7.07;;